sensor_id;sensor_type;location;lat;lon;timestamp;P1;durP1;ratioP1;P2;durP2;ratioP2
74375;SDS011;62812;55.188;61.302;2023-09-19T00:02:04;6.13;;;2.28;;
74375;SDS011;62812;55.188;61.302;2023-09-19T00:04:32;6.82;;;1.67;;
74375;SDS011;62812;55.188;61.302;2023-09-19T00:06:59;7.40;;;2.08;;
74375;SDS011;62812;55.188;61.302;2023-09-19T00:09:28;5.10;;;1.70;;
74375;SDS011;62812;55.188;61.302;2023-09-19T00:11:55;6.75;;;1.80;;
74375;SDS011;62812;55.188;61.302;2023-09-19T00:14:24;4.72;;;1.77;;
74375;SDS011;62812;55.188;61.302;2023-09-19T00:16:53;6.78;;;2.10;;
74375;SDS011;62812;55.188;61.302;2023-09-19T00:19:22;4.13;;;1.70;;
74375;SDS011;62812;55.188;61.302;2023-09-19T00:21:49;7.00;;;1.95;;
74375;SDS011;62812;55.188;61.302;2023-09-19T00:24:16;5.22;;;2.17;;
74375;SDS011;62812;55.188;61.302;2023-09-19T00:26:42;5.32;;;1.95;;
74375;SDS011;62812;55.188;61.302;2023-09-19T00:29:09;4.82;;;1.92;;
74375;SDS011;62812;55.188;61.302;2023-09-19T00:31:36;4.95;;;2.20;;
74375;SDS011;62812;55.188;61.302;2023-09-19T00:34:03;6.63;;;2.00;;
74375;SDS011;62812;55.188;61.302;2023-09-19T00:36:32;5.70;;;1.90;;
74375;SDS011;62812;55.188;61.302;2023-09-19T00:38:59;5.35;;;1.95;;
74375;SDS011;62812;55.188;61.302;2023-09-19T00:41:28;5.28;;;1.77;;
74375;SDS011;62812;55.188;61.302;2023-09-19T00:43:59;6.57;;;1.92;;
74375;SDS011;62812;55.188;61.302;2023-09-19T00:46:28;5.20;;;1.65;;
74375;SDS011;62812;55.188;61.302;2023-09-19T00:48:55;6.18;;;1.88;;
74375;SDS011;62812;55.188;61.302;2023-09-19T00:51:22;7.32;;;2.17;;
74375;SDS011;62812;55.188;61.302;2023-09-19T00:53:52;7.00;;;1.98;;
74375;SDS011;62812;55.188;61.302;2023-09-19T00:56:20;5.78;;;2.10;;
74375;SDS011;62812;55.188;61.302;2023-09-19T00:58:47;5.47;;;2.15;;
74375;SDS011;62812;55.188;61.302;2023-09-19T01:01:14;5.35;;;2.08;;
74375;SDS011;62812;55.188;61.302;2023-09-19T01:03:41;7.10;;;2.30;;
74375;SDS011;62812;55.188;61.302;2023-09-19T01:06:07;6.57;;;2.08;;
74375;SDS011;62812;55.188;61.302;2023-09-19T01:08:34;4.57;;;1.95;;
74375;SDS011;62812;55.188;61.302;2023-09-19T01:11:06;5.65;;;2.08;;
74375;SDS011;62812;55.188;61.302;2023-09-19T01:13:45;8.77;;;2.17;;
74375;SDS011;62812;55.188;61.302;2023-09-19T01:16:21;7.60;;;2.42;;
74375;SDS011;62812;55.188;61.302;2023-09-19T01:19:01;7.90;;;2.20;;
74375;SDS011;62812;55.188;61.302;2023-09-19T01:21:51;8.77;;;2.22;;
74375;SDS011;62812;55.188;61.302;2023-09-19T01:24:31;5.00;;;2.05;;
74375;SDS011;62812;55.188;61.302;2023-09-19T01:27:25;6.85;;;2.10;;
74375;SDS011;62812;55.188;61.302;2023-09-19T01:30:14;6.43;;;2.17;;
74375;SDS011;62812;55.188;61.302;2023-09-19T01:32:49;5.72;;;2.30;;
74375;SDS011;62812;55.188;61.302;2023-09-19T01:35:18;6.55;;;2.45;;
74375;SDS011;62812;55.188;61.302;2023-09-19T01:37:45;6.57;;;2.13;;
74375;SDS011;62812;55.188;61.302;2023-09-19T01:40:14;7.15;;;2.30;;
74375;SDS011;62812;55.188;61.302;2023-09-19T01:42:45;6.85;;;2.53;;
74375;SDS011;62812;55.188;61.302;2023-09-19T01:45:26;7.70;;;2.30;;
74375;SDS011;62812;55.188;61.302;2023-09-19T01:48:01;7.75;;;2.30;;
74375;SDS011;62812;55.188;61.302;2023-09-19T01:50:38;6.75;;;2.20;;
74375;SDS011;62812;55.188;61.302;2023-09-19T01:53:14;8.68;;;2.72;;
74375;SDS011;62812;55.188;61.302;2023-09-19T01:55:56;7.88;;;2.50;;
74375;SDS011;62812;55.188;61.302;2023-09-19T01:58:27;8.35;;;2.40;;
74375;SDS011;62812;55.188;61.302;2023-09-19T02:01:01;6.95;;;2.10;;
74375;SDS011;62812;55.188;61.302;2023-09-19T02:03:31;5.32;;;1.98;;
74375;SDS011;62812;55.188;61.302;2023-09-19T02:06:01;5.55;;;2.38;;
74375;SDS011;62812;55.188;61.302;2023-09-19T02:08:29;9.32;;;2.55;;
74375;SDS011;62812;55.188;61.302;2023-09-19T02:10:59;8.05;;;2.53;;
74375;SDS011;62812;55.188;61.302;2023-09-19T02:13:26;6.63;;;2.35;;
74375;SDS011;62812;55.188;61.302;2023-09-19T02:15:56;8.10;;;2.38;;
74375;SDS011;62812;55.188;61.302;2023-09-19T02:18:25;14.05;;;3.25;;
74375;SDS011;62812;55.188;61.302;2023-09-19T02:20:54;9.73;;;2.95;;
74375;SDS011;62812;55.188;61.302;2023-09-19T02:23:26;9.52;;;2.80;;
74375;SDS011;62812;55.188;61.302;2023-09-19T02:26:12;6.03;;;2.47;;
74375;SDS011;62812;55.188;61.302;2023-09-19T02:28:39;10.15;;;2.75;;
74375;SDS011;62812;55.188;61.302;2023-09-19T02:31:06;9.63;;;2.58;;
74375;SDS011;62812;55.188;61.302;2023-09-19T02:33:45;9.52;;;2.50;;
74375;SDS011;62812;55.188;61.302;2023-09-19T02:36:16;12.45;;;2.65;;
74375;SDS011;62812;55.188;61.302;2023-09-19T02:38:43;6.95;;;2.17;;
74375;SDS011;62812;55.188;61.302;2023-09-19T02:41:10;10.30;;;2.20;;
74375;SDS011;62812;55.188;61.302;2023-09-19T02:43:37;5.57;;;2.40;;
74375;SDS011;62812;55.188;61.302;2023-09-19T02:46:07;12.00;;;2.80;;
74375;SDS011;62812;55.188;61.302;2023-09-19T02:48:52;10.02;;;2.90;;
74375;SDS011;62812;55.188;61.302;2023-09-19T02:51:20;6.57;;;2.65;;
74375;SDS011;62812;55.188;61.302;2023-09-19T02:53:50;10.00;;;2.95;;
74375;SDS011;62812;55.188;61.302;2023-09-19T02:56:20;9.75;;;2.05;;
74375;SDS011;62812;55.188;61.302;2023-09-19T02:58:53;9.13;;;2.63;;
74375;SDS011;62812;55.188;61.302;2023-09-19T03:01:23;17.17;;;2.72;;
74375;SDS011;62812;55.188;61.302;2023-09-19T03:03:50;10.55;;;2.58;;
74375;SDS011;62812;55.188;61.302;2023-09-19T03:06:18;9.88;;;2.50;;
74375;SDS011;62812;55.188;61.302;2023-09-19T03:08:45;8.02;;;2.40;;
74375;SDS011;62812;55.188;61.302;2023-09-19T03:11:14;12.23;;;2.75;;
74375;SDS011;62812;55.188;61.302;2023-09-19T03:13:42;8.18;;;2.58;;
74375;SDS011;62812;55.188;61.302;2023-09-19T03:16:11;12.52;;;3.15;;
74375;SDS011;62812;55.188;61.302;2023-09-19T03:18:41;15.43;;;3.30;;
74375;SDS011;62812;55.188;61.302;2023-09-19T03:21:10;12.77;;;2.80;;
74375;SDS011;62812;55.188;61.302;2023-09-19T03:23:38;9.85;;;2.90;;
74375;SDS011;62812;55.188;61.302;2023-09-19T03:26:04;15.30;;;2.83;;
74375;SDS011;62812;55.188;61.302;2023-09-19T03:28:34;13.07;;;2.70;;
74375;SDS011;62812;55.188;61.302;2023-09-19T03:31:03;17.27;;;3.30;;
74375;SDS011;62812;55.188;61.302;2023-09-19T03:33:31;15.23;;;2.78;;
74375;SDS011;62812;55.188;61.302;2023-09-19T03:35:59;11.60;;;2.65;;
74375;SDS011;62812;55.188;61.302;2023-09-19T03:38:26;10.20;;;2.35;;
74375;SDS011;62812;55.188;61.302;2023-09-19T03:40:58;15.07;;;3.22;;
74375;SDS011;62812;55.188;61.302;2023-09-19T03:43:25;14.32;;;2.95;;
74375;SDS011;62812;55.188;61.302;2023-09-19T03:45:52;13.90;;;2.80;;
74375;SDS011;62812;55.188;61.302;2023-09-19T03:48:19;9.82;;;2.13;;
74375;SDS011;62812;55.188;61.302;2023-09-19T03:50:47;10.70;;;2.95;;
74375;SDS011;62812;55.188;61.302;2023-09-19T03:53:13;11.70;;;2.95;;
74375;SDS011;62812;55.188;61.302;2023-09-19T03:55:41;14.23;;;2.67;;
74375;SDS011;62812;55.188;61.302;2023-09-19T03:58:11;10.07;;;2.60;;
74375;SDS011;62812;55.188;61.302;2023-09-19T04:00:41;9.93;;;2.60;;
74375;SDS011;62812;55.188;61.302;2023-09-19T04:03:07;11.68;;;2.85;;
74375;SDS011;62812;55.188;61.302;2023-09-19T04:05:47;14.32;;;3.50;;
74375;SDS011;62812;55.188;61.302;2023-09-19T04:08:16;9.98;;;2.90;;
74375;SDS011;62812;55.188;61.302;2023-09-19T04:10:42;13.27;;;3.10;;
74375;SDS011;62812;55.188;61.302;2023-09-19T04:13:19;11.07;;;3.22;;
74375;SDS011;62812;55.188;61.302;2023-09-19T04:15:46;10.45;;;3.28;;
74375;SDS011;62812;55.188;61.302;2023-09-19T04:18:13;12.63;;;2.85;;
74375;SDS011;62812;55.188;61.302;2023-09-19T04:20:40;11.82;;;3.00;;
74375;SDS011;62812;55.188;61.302;2023-09-19T04:23:06;12.40;;;3.35;;
74375;SDS011;62812;55.188;61.302;2023-09-19T04:25:36;10.70;;;3.58;;
74375;SDS011;62812;55.188;61.302;2023-09-19T04:28:03;13.10;;;2.97;;
74375;SDS011;62812;55.188;61.302;2023-09-19T04:30:32;15.30;;;4.72;;
74375;SDS011;62812;55.188;61.302;2023-09-19T04:33:01;12.95;;;4.70;;
74375;SDS011;62812;55.188;61.302;2023-09-19T04:35:35;14.77;;;3.47;;
74375;SDS011;62812;55.188;61.302;2023-09-19T04:38:04;6.93;;;3.10;;
74375;SDS011;62812;55.188;61.302;2023-09-19T04:40:33;9.90;;;3.13;;
74375;SDS011;62812;55.188;61.302;2023-09-19T04:43:03;14.35;;;3.80;;
74375;SDS011;62812;55.188;61.302;2023-09-19T04:48:32;12.32;;;3.60;;
74375;SDS011;62812;55.188;61.302;2023-09-19T04:51:06;7.25;;;2.90;;
74375;SDS011;62812;55.188;61.302;2023-09-19T04:55:03;10.25;;;3.47;;
74375;SDS011;62812;55.188;61.302;2023-09-19T04:57:46;8.68;;;3.40;;
74375;SDS011;62812;55.188;61.302;2023-09-19T05:00:36;14.65;;;4.35;;
74375;SDS011;62812;55.188;61.302;2023-09-19T05:15:27;11.70;;;3.95;;
74375;SDS011;62812;55.188;61.302;2023-09-19T05:17:58;11.45;;;4.18;;
74375;SDS011;62812;55.188;61.302;2023-09-19T05:20:26;18.10;;;4.10;;
74375;SDS011;62812;55.188;61.302;2023-09-19T05:24:06;27.92;;;4.88;;
74375;SDS011;62812;55.188;61.302;2023-09-19T05:26:51;11.48;;;3.88;;
74375;SDS011;62812;55.188;61.302;2023-09-19T05:29:18;14.95;;;3.80;;
74375;SDS011;62812;55.188;61.302;2023-09-19T05:40:54;9.93;;;3.67;;
74375;SDS011;62812;55.188;61.302;2023-09-19T05:43:21;12.63;;;4.00;;
74375;SDS011;62812;55.188;61.302;2023-09-19T05:45:59;11.40;;;4.05;;
74375;SDS011;62812;55.188;61.302;2023-09-19T05:48:29;13.88;;;4.30;;
74375;SDS011;62812;55.188;61.302;2023-09-19T05:50:59;14.57;;;4.90;;
74375;SDS011;62812;55.188;61.302;2023-09-19T05:53:30;10.60;;;3.90;;
74375;SDS011;62812;55.188;61.302;2023-09-19T05:59:12;7.88;;;3.30;;
74375;SDS011;62812;55.188;61.302;2023-09-19T06:01:42;8.05;;;3.90;;
74375;SDS011;62812;55.188;61.302;2023-09-19T06:04:10;10.13;;;3.50;;
74375;SDS011;62812;55.188;61.302;2023-09-19T06:06:41;9.38;;;3.30;;
74375;SDS011;62812;55.188;61.302;2023-09-19T06:09:12;8.90;;;3.88;;
74375;SDS011;62812;55.188;61.302;2023-09-19T06:11:45;7.97;;;3.42;;
74375;SDS011;62812;55.188;61.302;2023-09-19T06:17:15;6.38;;;3.20;;
74375;SDS011;62812;55.188;61.302;2023-09-19T06:19:57;14.45;;;5.35;;
74375;SDS011;62812;55.188;61.302;2023-09-19T06:22:26;9.75;;;3.75;;
74375;SDS011;62812;55.188;61.302;2023-09-19T06:27:53;8.98;;;3.60;;
74375;SDS011;62812;55.188;61.302;2023-09-19T06:39:38;7.32;;;3.45;;
74375;SDS011;62812;55.188;61.302;2023-09-19T06:42:05;11.05;;;3.50;;
74375;SDS011;62812;55.188;61.302;2023-09-19T06:47:52;9.23;;;3.47;;
74375;SDS011;62812;55.188;61.302;2023-09-19T06:50:23;7.88;;;3.50;;
74375;SDS011;62812;55.188;61.302;2023-09-19T06:52:52;9.30;;;3.22;;
74375;SDS011;62812;55.188;61.302;2023-09-19T06:58:23;9.18;;;3.60;;
74375;SDS011;62812;55.188;61.302;2023-09-19T07:00:50;10.50;;;3.97;;
74375;SDS011;62812;55.188;61.302;2023-09-19T07:03:24;7.63;;;3.60;;
74375;SDS011;62812;55.188;61.302;2023-09-19T07:06:31;10.02;;;4.13;;
74375;SDS011;62812;55.188;61.302;2023-09-19T07:08:58;12.77;;;4.05;;
74375;SDS011;62812;55.188;61.302;2023-09-19T07:17:47;9.73;;;3.42;;
74375;SDS011;62812;55.188;61.302;2023-09-19T07:20:21;10.85;;;4.20;;
74375;SDS011;62812;55.188;61.302;2023-09-19T07:22:49;8.68;;;4.03;;
74375;SDS011;62812;55.188;61.302;2023-09-19T07:25:35;8.85;;;3.55;;
74375;SDS011;62812;55.188;61.302;2023-09-19T07:28:08;12.02;;;3.85;;
74375;SDS011;62812;55.188;61.302;2023-09-19T07:31:05;9.77;;;4.20;;
74375;SDS011;62812;55.188;61.302;2023-09-19T07:59:08;12.23;;;4.22;;
74375;SDS011;62812;55.188;61.302;2023-09-19T08:01:47;9.13;;;4.25;;
74375;SDS011;62812;55.188;61.302;2023-09-19T08:04:21;7.97;;;3.97;;
74375;SDS011;62812;55.188;61.302;2023-09-19T08:06:56;9.73;;;3.75;;
74375;SDS011;62812;55.188;61.302;2023-09-19T08:09:24;6.60;;;4.00;;
74375;SDS011;62812;55.188;61.302;2023-09-19T08:11:53;7.00;;;3.45;;
74375;SDS011;62812;55.188;61.302;2023-09-19T08:15:03;11.35;;;4.15;;
74375;SDS011;62812;55.188;61.302;2023-09-19T08:17:36;10.63;;;4.13;;
74375;SDS011;62812;55.188;61.302;2023-09-19T08:20:07;11.07;;;4.45;;
74375;SDS011;62812;55.188;61.302;2023-09-19T08:22:53;10.02;;;3.72;;
74375;SDS011;62812;55.188;61.302;2023-09-19T08:25:20;17.23;;;4.25;;
74375;SDS011;62812;55.188;61.302;2023-09-19T08:27:49;17.58;;;4.50;;
74375;SDS011;62812;55.188;61.302;2023-09-19T08:33:09;8.32;;;3.30;;
74375;SDS011;62812;55.188;61.302;2023-09-19T08:35:40;10.05;;;3.50;;
74375;SDS011;62812;55.188;61.302;2023-09-19T08:38:13;12.02;;;3.13;;
74375;SDS011;62812;55.188;61.302;2023-09-19T08:40:57;8.40;;;3.55;;
74375;SDS011;62812;55.188;61.302;2023-09-19T08:43:29;11.20;;;3.33;;
74375;SDS011;62812;55.188;61.302;2023-09-19T09:27:22;9.88;;;3.50;;
74375;SDS011;62812;55.188;61.302;2023-09-19T09:30:33;9.75;;;3.67;;
74375;SDS011;62812;55.188;61.302;2023-09-19T09:33:09;9.60;;;3.72;;
74375;SDS011;62812;55.188;61.302;2023-09-19T09:35:52;10.75;;;3.63;;
74375;SDS011;62812;55.188;61.302;2023-09-19T09:38:29;12.70;;;3.28;;
74375;SDS011;62812;55.188;61.302;2023-09-19T09:41:17;7.90;;;3.38;;
74375;SDS011;62812;55.188;61.302;2023-09-19T09:48:08;7.47;;;2.80;;
74375;SDS011;62812;55.188;61.302;2023-09-19T09:53:35;9.10;;;2.95;;
74375;SDS011;62812;55.188;61.302;2023-09-19T09:56:13;12.00;;;3.10;;
74375;SDS011;62812;55.188;61.302;2023-09-19T09:58:50;11.13;;;2.78;;
74375;SDS011;62812;55.188;61.302;2023-09-19T10:42:03;12.48;;;4.88;;
74375;SDS011;62812;55.188;61.302;2023-09-19T10:44:32;9.77;;;4.55;;
74375;SDS011;62812;55.188;61.302;2023-09-19T10:47:16;7.45;;;4.07;;
74375;SDS011;62812;55.188;61.302;2023-09-19T10:50:12;10.90;;;4.00;;
74375;SDS011;62812;55.188;61.302;2023-09-19T10:53:06;9.95;;;4.88;;
74375;SDS011;62812;55.188;61.302;2023-09-19T11:05:10;16.27;;;6.47;;
74375;SDS011;62812;55.188;61.302;2023-09-19T11:07:57;16.75;;;7.88;;
74375;SDS011;62812;55.188;61.302;2023-09-19T11:11:10;16.98;;;9.38;;
74375;SDS011;62812;55.188;61.302;2023-09-19T11:14:28;19.50;;;7.88;;
74375;SDS011;62812;55.188;61.302;2023-09-19T11:23:28;21.15;;;9.32;;
74375;SDS011;62812;55.188;61.302;2023-09-19T11:25:57;18.15;;;9.57;;
74375;SDS011;62812;55.188;61.302;2023-09-19T11:28:33;20.88;;;10.00;;
74375;SDS011;62812;55.188;61.302;2023-09-19T11:43:52;26.88;;;12.82;;
74375;SDS011;62812;55.188;61.302;2023-09-19T11:46:27;30.48;;;14.63;;
74375;SDS011;62812;55.188;61.302;2023-09-19T11:48:55;31.77;;;13.98;;
74375;SDS011;62812;55.188;61.302;2023-09-19T11:51:42;31.27;;;13.18;;
74375;SDS011;62812;55.188;61.302;2023-09-19T11:54:13;28.55;;;13.45;;
74375;SDS011;62812;55.188;61.302;2023-09-19T11:56:58;31.02;;;14.50;;
74375;SDS011;62812;55.188;61.302;2023-09-19T11:59:26;23.63;;;11.63;;
74375;SDS011;62812;55.188;61.302;2023-09-19T12:01:56;23.48;;;10.88;;
74375;SDS011;62812;55.188;61.302;2023-09-19T12:04:33;22.38;;;10.35;;
74375;SDS011;62812;55.188;61.302;2023-09-19T12:07:04;25.65;;;11.20;;
74375;SDS011;62812;55.188;61.302;2023-09-19T12:09:38;18.67;;;10.00;;
74375;SDS011;62812;55.188;61.302;2023-09-19T12:12:10;23.55;;;9.43;;
74375;SDS011;62812;55.188;61.302;2023-09-19T12:14:43;16.10;;;9.15;;
74375;SDS011;62812;55.188;61.302;2023-09-19T12:17:35;22.00;;;9.95;;
74375;SDS011;62812;55.188;61.302;2023-09-19T12:20:02;24.15;;;10.15;;
74375;SDS011;62812;55.188;61.302;2023-09-19T12:22:40;19.23;;;10.05;;
74375;SDS011;62812;55.188;61.302;2023-09-19T12:25:09;18.98;;;9.50;;
74375;SDS011;62812;55.188;61.302;2023-09-19T12:27:47;18.77;;;8.95;;
74375;SDS011;62812;55.188;61.302;2023-09-19T12:30:27;19.25;;;10.82;;
74375;SDS011;62812;55.188;61.302;2023-09-19T12:32:59;19.02;;;9.95;;
74375;SDS011;62812;55.188;61.302;2023-09-19T12:35:28;17.83;;;8.75;;
74375;SDS011;62812;55.188;61.302;2023-09-19T12:38:00;23.33;;;9.90;;
74375;SDS011;62812;55.188;61.302;2023-09-19T12:40:32;19.33;;;9.07;;
74375;SDS011;62812;55.188;61.302;2023-09-19T12:45:47;21.60;;;9.32;;
74375;SDS011;62812;55.188;61.302;2023-09-19T12:48:18;20.38;;;9.60;;
74375;SDS011;62812;55.188;61.302;2023-09-19T12:51:01;19.67;;;8.90;;
74375;SDS011;62812;55.188;61.302;2023-09-19T12:53:33;22.48;;;9.55;;
74375;SDS011;62812;55.188;61.302;2023-09-19T12:56:06;16.25;;;8.80;;
74375;SDS011;62812;55.188;61.302;2023-09-19T12:58:52;19.65;;;10.07;;
74375;SDS011;62812;55.188;61.302;2023-09-19T13:01:29;17.08;;;9.60;;
74375;SDS011;62812;55.188;61.302;2023-09-19T13:07:59;20.02;;;9.02;;
74375;SDS011;62812;55.188;61.302;2023-09-19T13:11:12;14.23;;;7.72;;
74375;SDS011;62812;55.188;61.302;2023-09-19T14:28:19;7.80;;;2.13;;
74375;SDS011;62812;55.188;61.302;2023-09-19T14:30:45;9.15;;;2.80;;
74375;SDS011;62812;55.188;61.302;2023-09-19T14:36:25;8.30;;;2.65;;
74375;SDS011;62812;55.188;61.302;2023-09-19T14:39:02;9.20;;;2.67;;
74375;SDS011;62812;55.188;61.302;2023-09-19T14:41:29;10.38;;;3.05;;
74375;SDS011;62812;55.188;61.302;2023-09-19T14:49:59;11.10;;;3.20;;
74375;SDS011;62812;55.188;61.302;2023-09-19T14:52:27;8.80;;;2.85;;
74375;SDS011;62812;55.188;61.302;2023-09-19T14:54:57;11.50;;;3.35;;
74375;SDS011;62812;55.188;61.302;2023-09-19T14:57:27;9.00;;;2.85;;
74375;SDS011;62812;55.188;61.302;2023-09-19T14:59:55;9.13;;;2.92;;
74375;SDS011;62812;55.188;61.302;2023-09-19T15:02:22;7.45;;;2.42;;
74375;SDS011;62812;55.188;61.302;2023-09-19T15:08:06;12.43;;;3.45;;
74375;SDS011;62812;55.188;61.302;2023-09-19T15:10:33;7.68;;;2.90;;
74375;SDS011;62812;55.188;61.302;2023-09-19T15:13:01;8.30;;;2.88;;
74375;SDS011;62812;55.188;61.302;2023-09-19T15:15:28;8.65;;;3.17;;
74375;SDS011;62812;55.188;61.302;2023-09-19T15:20:26;7.50;;;2.55;;
74375;SDS011;62812;55.188;61.302;2023-09-19T15:22:54;6.25;;;2.80;;
74375;SDS011;62812;55.188;61.302;2023-09-19T15:28:17;8.60;;;2.92;;
74375;SDS011;62812;55.188;61.302;2023-09-19T15:30:45;7.25;;;2.55;;
74375;SDS011;62812;55.188;61.302;2023-09-19T15:33:16;6.50;;;3.00;;
74375;SDS011;62812;55.188;61.302;2023-09-19T15:35:49;9.63;;;2.72;;
74375;SDS011;62812;55.188;61.302;2023-09-19T15:38:31;7.38;;;2.72;;
74375;SDS011;62812;55.188;61.302;2023-09-19T15:44:11;8.15;;;3.15;;
74375;SDS011;62812;55.188;61.302;2023-09-19T15:46:45;6.35;;;2.90;;
74375;SDS011;62812;55.188;61.302;2023-09-19T15:51:47;6.43;;;2.30;;
74375;SDS011;62812;55.188;61.302;2023-09-19T15:54:15;10.70;;;2.90;;
74375;SDS011;62812;55.188;61.302;2023-09-19T15:56:46;10.05;;;2.50;;
74375;SDS011;62812;55.188;61.302;2023-09-19T15:59:15;6.00;;;2.10;;
74375;SDS011;62812;55.188;61.302;2023-09-19T16:01:42;6.60;;;2.42;;
74375;SDS011;62812;55.188;61.302;2023-09-19T16:04:15;5.68;;;2.55;;
74375;SDS011;62812;55.188;61.302;2023-09-19T16:06:43;7.43;;;2.50;;
74375;SDS011;62812;55.188;61.302;2023-09-19T16:09:10;5.03;;;1.98;;
74375;SDS011;62812;55.188;61.302;2023-09-19T16:11:37;4.85;;;2.03;;
74375;SDS011;62812;55.188;61.302;2023-09-19T16:16:58;4.40;;;1.92;;
74375;SDS011;62812;55.188;61.302;2023-09-19T16:19:28;6.63;;;1.67;;
74375;SDS011;62812;55.188;61.302;2023-09-19T16:22:00;6.35;;;2.38;;
74375;SDS011;62812;55.188;61.302;2023-09-19T16:24:39;7.05;;;1.85;;
74375;SDS011;62812;55.188;61.302;2023-09-19T16:27:17;6.22;;;2.05;;
74375;SDS011;62812;55.188;61.302;2023-09-19T16:54:19;3.90;;;1.50;;
74375;SDS011;62812;55.188;61.302;2023-09-19T16:56:47;5.57;;;1.65;;
74375;SDS011;62812;55.188;61.302;2023-09-19T16:59:29;6.85;;;1.67;;
74375;SDS011;62812;55.188;61.302;2023-09-19T17:02:06;4.50;;;1.60;;
74375;SDS011;62812;55.188;61.302;2023-09-19T17:05:03;4.65;;;1.40;;
74375;SDS011;62812;55.188;61.302;2023-09-19T17:07:36;4.25;;;1.67;;
74375;SDS011;62812;55.188;61.302;2023-09-19T17:10:07;4.07;;;1.40;;
74375;SDS011;62812;55.188;61.302;2023-09-19T17:12:37;6.13;;;1.60;;
74375;SDS011;62812;55.188;61.302;2023-09-19T17:15:13;5.00;;;1.40;;
74375;SDS011;62812;55.188;61.302;2023-09-19T17:17:53;4.25;;;1.60;;
74375;SDS011;62812;55.188;61.302;2023-09-19T17:20:21;6.50;;;1.70;;
74375;SDS011;62812;55.188;61.302;2023-09-19T17:22:54;7.88;;;1.67;;
74375;SDS011;62812;55.188;61.302;2023-09-19T17:25:33;4.78;;;1.75;;
74375;SDS011;62812;55.188;61.302;2023-09-19T17:28:00;4.45;;;1.50;;
74375;SDS011;62812;55.188;61.302;2023-09-19T17:30:27;3.55;;;1.40;;
74375;SDS011;62812;55.188;61.302;2023-09-19T17:32:55;4.07;;;1.75;;
74375;SDS011;62812;55.188;61.302;2023-09-19T17:35:33;3.72;;;1.50;;
74375;SDS011;62812;55.188;61.302;2023-09-19T17:38:06;4.32;;;1.70;;
74375;SDS011;62812;55.188;61.302;2023-09-19T17:40:38;5.45;;;1.80;;
74375;SDS011;62812;55.188;61.302;2023-09-19T17:43:11;4.63;;;1.50;;
74375;SDS011;62812;55.188;61.302;2023-09-19T17:46:03;5.25;;;1.58;;
74375;SDS011;62812;55.188;61.302;2023-09-19T17:48:34;5.55;;;1.60;;
74375;SDS011;62812;55.188;61.302;2023-09-19T17:51:06;6.40;;;1.50;;
74375;SDS011;62812;55.188;61.302;2023-09-19T17:53:38;4.68;;;1.50;;
74375;SDS011;62812;55.188;61.302;2023-09-19T17:56:08;5.53;;;2.65;;
74375;SDS011;62812;55.188;61.302;2023-09-19T17:58:38;5.55;;;1.52;;
74375;SDS011;62812;55.188;61.302;2023-09-19T18:01:13;4.85;;;2.10;;
74375;SDS011;62812;55.188;61.302;2023-09-19T18:04:08;4.28;;;1.60;;
74375;SDS011;62812;55.188;61.302;2023-09-19T18:06:35;7.53;;;1.70;;
74375;SDS011;62812;55.188;61.302;2023-09-19T18:09:10;6.82;;;2.00;;
74375;SDS011;62812;55.188;61.302;2023-09-19T18:11:36;4.00;;;1.60;;
74375;SDS011;62812;55.188;61.302;2023-09-19T18:14:04;5.30;;;1.52;;
74375;SDS011;62812;55.188;61.302;2023-09-19T18:16:35;7.47;;;1.85;;
74375;SDS011;62812;55.188;61.302;2023-09-19T18:19:03;3.83;;;1.45;;
74375;SDS011;62812;55.188;61.302;2023-09-19T18:21:36;4.40;;;1.60;;
74375;SDS011;62812;55.188;61.302;2023-09-19T18:24:03;6.75;;;1.58;;
74375;SDS011;62812;55.188;61.302;2023-09-19T18:26:47;6.05;;;1.40;;
74375;SDS011;62812;55.188;61.302;2023-09-19T18:29:14;4.28;;;1.45;;
74375;SDS011;62812;55.188;61.302;2023-09-19T18:31:41;8.13;;;2.00;;
74375;SDS011;62812;55.188;61.302;2023-09-19T18:34:10;5.15;;;1.65;;
74375;SDS011;62812;55.188;61.302;2023-09-19T18:36:38;3.28;;;1.55;;
74375;SDS011;62812;55.188;61.302;2023-09-19T18:39:05;4.13;;;1.48;;
74375;SDS011;62812;55.188;61.302;2023-09-19T18:41:34;5.72;;;1.45;;
74375;SDS011;62812;55.188;61.302;2023-09-19T18:44:17;4.97;;;1.40;;
74375;SDS011;62812;55.188;61.302;2023-09-19T18:46:45;5.70;;;1.50;;
74375;SDS011;62812;55.188;61.302;2023-09-19T18:49:13;5.05;;;1.50;;
74375;SDS011;62812;55.188;61.302;2023-09-19T18:51:42;6.82;;;1.50;;
74375;SDS011;62812;55.188;61.302;2023-09-19T18:54:09;5.07;;;1.25;;
74375;SDS011;62812;55.188;61.302;2023-09-19T18:56:36;3.85;;;1.60;;
74375;SDS011;62812;55.188;61.302;2023-09-19T18:59:04;3.45;;;1.30;;
74375;SDS011;62812;55.188;61.302;2023-09-19T19:01:32;6.43;;;1.77;;
74375;SDS011;62812;55.188;61.302;2023-09-19T19:04:01;3.90;;;1.50;;
74375;SDS011;62812;55.188;61.302;2023-09-19T19:06:28;3.95;;;1.52;;
74375;SDS011;62812;55.188;61.302;2023-09-19T19:08:56;4.28;;;1.30;;
74375;SDS011;62812;55.188;61.302;2023-09-19T19:11:23;3.58;;;1.20;;
74375;SDS011;62812;55.188;61.302;2023-09-19T19:13:52;6.30;;;1.60;;
74375;SDS011;62812;55.188;61.302;2023-09-19T19:16:21;4.38;;;1.10;;
74375;SDS011;62812;55.188;61.302;2023-09-19T19:18:49;4.15;;;1.63;;
74375;SDS011;62812;55.188;61.302;2023-09-19T19:21:20;6.35;;;1.40;;
74375;SDS011;62812;55.188;61.302;2023-09-19T19:23:47;4.00;;;1.30;;
74375;SDS011;62812;55.188;61.302;2023-09-19T19:26:25;3.75;;;1.20;;
74375;SDS011;62812;55.188;61.302;2023-09-19T19:28:52;2.70;;;0.98;;
74375;SDS011;62812;55.188;61.302;2023-09-19T19:42:58;3.45;;;0.90;;
74375;SDS011;62812;55.188;61.302;2023-09-19T19:45:24;7.15;;;1.30;;
74375;SDS011;62812;55.188;61.302;2023-09-19T19:47:52;8.75;;;1.30;;
74375;SDS011;62812;55.188;61.302;2023-09-19T19:50:20;5.55;;;1.55;;
74375;SDS011;62812;55.188;61.302;2023-09-19T19:52:50;3.35;;;1.20;;
74375;SDS011;62812;55.188;61.302;2023-09-19T19:55:19;3.85;;;0.80;;
74375;SDS011;62812;55.188;61.302;2023-09-19T19:57:59;3.78;;;1.02;;
74375;SDS011;62812;55.188;61.302;2023-09-19T20:00:27;2.42;;;0.70;;
74375;SDS011;62812;55.188;61.302;2023-09-19T20:02:57;2.58;;;0.80;;
74375;SDS011;62812;55.188;61.302;2023-09-19T20:05:24;4.10;;;0.85;;
74375;SDS011;62812;55.188;61.302;2023-09-19T20:07:51;4.97;;;1.10;;
74375;SDS011;62812;55.188;61.302;2023-09-19T20:10:18;3.47;;;0.80;;
74375;SDS011;62812;55.188;61.302;2023-09-19T20:12:49;4.43;;;0.88;;
74375;SDS011;62812;55.188;61.302;2023-09-19T20:15:18;2.63;;;0.93;;
74375;SDS011;62812;55.188;61.302;2023-09-19T20:17:46;5.22;;;1.10;;
74375;SDS011;62812;55.188;61.302;2023-09-19T20:20:13;4.30;;;1.05;;
74375;SDS011;62812;55.188;61.302;2023-09-19T20:22:42;3.47;;;1.08;;
74375;SDS011;62812;55.188;61.302;2023-09-19T20:25:16;3.08;;;0.98;;
74375;SDS011;62812;55.188;61.302;2023-09-19T20:27:43;2.58;;;0.90;;
74375;SDS011;62812;55.188;61.302;2023-09-19T20:35:57;2.88;;;0.90;;
74375;SDS011;62812;55.188;61.302;2023-09-19T20:38:25;4.25;;;1.05;;
74375;SDS011;62812;55.188;61.302;2023-09-19T20:40:53;6.05;;;1.55;;
74375;SDS011;62812;55.188;61.302;2023-09-19T20:43:20;3.13;;;1.13;;
74375;SDS011;62812;55.188;61.302;2023-09-19T20:45:46;7.05;;;1.10;;
74375;SDS011;62812;55.188;61.302;2023-09-19T20:48:13;6.80;;;2.30;;
74375;SDS011;62812;55.188;61.302;2023-09-19T20:50:46;6.18;;;1.27;;
74375;SDS011;62812;55.188;61.302;2023-09-19T20:53:13;4.53;;;1.20;;